createdAt,value
2023-02-19T00:01:43.827Z,15.95
2023-02-19T00:04:19.609Z,14.17
2023-02-19T00:06:47.532Z,13.50
2023-02-19T00:09:15.602Z,15.57
2023-02-19T00:11:44.086Z,14.10
2023-02-19T00:14:14.650Z,16.02
2023-02-19T00:16:41.236Z,15.70
2023-02-19T00:19:11.824Z,14.20
2023-02-19T00:21:38.426Z,13.35
2023-02-19T00:24:06.614Z,14.05
2023-02-19T00:26:34.232Z,14.57
2023-02-19T00:29:01.388Z,14.13
2023-02-19T00:31:35.939Z,13.45
2023-02-19T00:34:05.906Z,12.48
2023-02-19T00:36:35.924Z,13.75
2023-02-19T00:39:02.562Z,12.63
2023-02-19T00:41:30.475Z,11.63
2023-02-19T00:44:02.018Z,11.60
2023-02-19T00:46:34.345Z,11.90
2023-02-19T00:49:03.170Z,11.30
2023-02-19T00:51:32.978Z,11.43
2023-02-19T00:54:00.055Z,11.60
2023-02-19T00:56:27.045Z,11.35
2023-02-19T00:58:54.029Z,12.35
2023-02-19T01:01:20.894Z,10.85
2023-02-19T01:03:48.083Z,11.27
2023-02-19T01:06:17.583Z,10.80
2023-02-19T01:08:44.783Z,10.45
2023-02-19T01:11:12.255Z,10.27
2023-02-19T01:13:39.831Z,10.70
2023-02-19T01:16:14.326Z,10.20
2023-02-19T01:18:41.393Z,9.37
2023-02-19T01:21:10.133Z,10.13
2023-02-19T01:23:37.059Z,9.65
2023-02-19T01:26:08.671Z,10.40
2023-02-19T01:28:36.467Z,9.43
2023-02-19T01:31:05.176Z,8.80
2023-02-19T01:33:32.595Z,9.75
2023-02-19T01:35:59.583Z,8.45
2023-02-19T01:38:26.115Z,7.97
2023-02-19T01:41:00.817Z,8.43
2023-02-19T01:43:28.227Z,7.70
2023-02-19T01:45:55.078Z,9.25
2023-02-19T01:48:26.419Z,8.00
2023-02-19T01:50:58.614Z,7.43
2023-02-19T01:53:28.017Z,7.78
2023-02-19T01:55:58.722Z,7.70
2023-02-19T01:58:28.858Z,7.75
2023-02-19T02:00:55.485Z,7.70
2023-02-19T02:03:22.349Z,9.18
2023-02-19T02:06:20.826Z,7.63
2023-02-19T02:09:06.587Z,8.10
2023-02-19T02:11:33.247Z,7.65
2023-02-19T02:13:59.769Z,8.07
2023-02-19T02:16:29.237Z,8.10
2023-02-19T02:19:06.225Z,7.45
2023-02-19T02:21:44.789Z,8.30
2023-02-19T02:24:44.273Z,8.88
2023-02-19T02:27:29.534Z,7.65
2023-02-19T02:30:21.052Z,8.57
2023-02-19T02:33:11.997Z,7.80
2023-02-19T02:35:47.707Z,7.90
2023-02-19T02:38:17.090Z,8.60
2023-02-19T02:40:45.305Z,9.00
2023-02-19T02:43:14.437Z,9.18
2023-02-19T02:45:41.761Z,8.77
2023-02-19T02:48:38.721Z,8.93
2023-02-19T02:51:43.385Z,8.73
2023-02-19T02:54:40.890Z,8.60
2023-02-19T02:57:14.734Z,8.50
2023-02-19T02:59:54.495Z,9.63
2023-02-19T03:02:26.117Z,8.97
2023-02-19T03:05:39.197Z,9.23
2023-02-19T03:08:31.328Z,9.13
2023-02-19T03:11:24.294Z,9.68
2023-02-19T03:14:22.623Z,10.48
2023-02-19T03:17:10.488Z,9.83
2023-02-19T03:19:42.821Z,9.65
2023-02-19T03:22:14.411Z,9.60
2023-02-19T03:25:11.338Z,9.15
2023-02-19T03:27:40.873Z,8.05
2023-02-19T03:30:18.471Z,7.17
2023-02-19T03:33:09.755Z,7.05
2023-02-19T03:35:47.464Z,5.97
2023-02-19T03:38:22.542Z,6.85
2023-02-19T03:41:31.956Z,7.13
2023-02-19T03:44:12.237Z,6.17
2023-02-19T03:46:48.305Z,6.13
2023-02-19T03:49:24.094Z,6.50
2023-02-19T03:51:56.520Z,6.63
2023-02-19T03:54:51.059Z,6.95
2023-02-19T03:57:44.402Z,7.17
2023-02-19T04:00:18.194Z,6.57
2023-02-19T04:02:53.990Z,7.00
2023-02-19T04:05:26.771Z,6.78
2023-02-19T04:07:59.103Z,6.43
2023-02-19T04:10:32.050Z,6.90
2023-02-19T04:13:03.950Z,6.45
2023-02-19T04:15:33.560Z,7.00
2023-02-19T04:18:08.930Z,7.75
2023-02-19T04:20:46.279Z,7.72
2023-02-19T04:23:14.621Z,7.00
2023-02-19T04:25:43.834Z,7.78
2023-02-19T04:28:10.393Z,7.38
2023-02-19T04:30:36.953Z,8.25
2023-02-19T04:33:03.558Z,8.10
2023-02-19T04:35:30.213Z,8.40
2023-02-19T04:37:56.765Z,9.43
2023-02-19T04:40:23.284Z,11.07
2023-02-19T04:42:49.801Z,9.93
2023-02-19T04:45:16.319Z,10.52
2023-02-19T04:47:42.954Z,10.57
2023-02-19T04:50:09.482Z,9.20
2023-02-19T04:52:36.272Z,9.02
2023-02-19T04:55:02.760Z,9.75
2023-02-19T04:57:29.301Z,7.05
2023-02-19T04:59:55.741Z,6.10
2023-02-19T05:02:22.263Z,7.35
2023-02-19T05:04:49.185Z,6.78
2023-02-19T05:07:15.707Z,6.03
2023-02-19T05:09:42.199Z,6.15
2023-02-19T05:12:08.716Z,6.17
2023-02-19T05:14:35.187Z,6.18
2023-02-19T05:17:01.685Z,6.82
2023-02-19T05:19:28.152Z,5.82
2023-02-19T05:21:54.674Z,7.05
2023-02-19T05:24:21.210Z,5.93
2023-02-19T05:26:48.679Z,6.80
2023-02-19T05:29:15.173Z,5.95
2023-02-19T05:31:42.079Z,6.35
2023-02-19T05:34:08.596Z,5.75
2023-02-19T05:36:37.056Z,5.93
2023-02-19T05:39:03.829Z,5.88
2023-02-19T05:41:30.491Z,5.15
2023-02-19T05:43:57.899Z,5.47
2023-02-19T05:46:27.386Z,5.55
2023-02-19T05:48:54.671Z,5.63
2023-02-19T05:51:23.987Z,5.90
2023-02-19T05:53:51.010Z,5.90
2023-02-19T05:56:26.260Z,6.30
2023-02-19T05:58:53.734Z,5.43
2023-02-19T06:01:22.113Z,5.90
2023-02-19T06:03:48.649Z,5.15
2023-02-19T06:06:17.387Z,5.93
2023-02-19T06:08:43.916Z,6.20
2023-02-19T06:11:10.767Z,6.68
2023-02-19T06:13:37.382Z,7.37
2023-02-19T06:16:04.929Z,8.07
2023-02-19T06:18:31.619Z,6.88
2023-02-19T06:21:09.730Z,6.68
2023-02-19T06:23:37.007Z,6.75
2023-02-19T06:26:33.273Z,6.40
2023-02-19T06:28:59.865Z,7.13
2023-02-19T06:31:26.473Z,7.93
2023-02-19T06:33:53.071Z,7.32
2023-02-19T06:36:20.746Z,7.05
2023-02-19T06:38:47.199Z,7.10
2023-02-19T06:41:14.199Z,7.28
2023-02-19T06:43:41.187Z,7.93
2023-02-19T06:46:08.519Z,7.47
2023-02-19T06:48:35.629Z,7.03
2023-02-19T06:51:02.699Z,7.40
2023-02-19T06:53:29.379Z,8.65
2023-02-19T06:56:04.303Z,7.38
2023-02-19T06:58:31.070Z,7.55
2023-02-19T07:00:57.977Z,7.63
2023-02-19T07:03:26.247Z,6.23
2023-02-19T07:05:52.902Z,7.63
2023-02-19T07:08:19.533Z,7.18
2023-02-19T07:10:46.426Z,7.35
2023-02-19T07:13:12.919Z,7.70
2023-02-19T07:15:39.706Z,7.40
2023-02-19T07:18:10.246Z,7.25
2023-02-19T07:20:37.038Z,7.28
2023-02-19T07:23:03.685Z,8.25
2023-02-19T07:25:30.215Z,8.05
2023-02-19T07:27:56.999Z,7.10
2023-02-19T07:30:23.592Z,7.75
2023-02-19T07:32:50.172Z,6.85
2023-02-19T07:35:16.801Z,7.57
2023-02-19T07:37:43.288Z,7.32
2023-02-19T07:40:10.120Z,6.97
2023-02-19T07:42:36.622Z,7.32
2023-02-19T07:45:03.276Z,7.15
2023-02-19T07:47:29.933Z,7.18
2023-02-19T07:49:56.419Z,6.70
2023-02-19T07:52:23.005Z,6.77
2023-02-19T07:54:49.506Z,7.20
2023-02-19T07:57:16.088Z,7.00
2023-02-19T07:59:42.832Z,7.68
2023-02-19T08:02:34.454Z,6.32
2023-02-19T08:05:01.243Z,6.93
2023-02-19T08:07:35.007Z,7.40
2023-02-19T08:10:21.106Z,6.88
2023-02-19T08:13:17.002Z,5.95
2023-02-19T08:15:43.685Z,6.20
2023-02-19T08:18:10.586Z,4.80
2023-02-19T08:20:37.267Z,4.57
2023-02-19T08:23:05.017Z,4.72
2023-02-19T08:25:31.783Z,4.28
2023-02-19T08:28:00.222Z,4.22
2023-02-19T08:30:28.657Z,3.90
2023-02-19T08:32:55.602Z,4.28
2023-02-19T08:35:22.281Z,4.28
2023-02-19T08:38:06.843Z,4.38
2023-02-19T08:40:33.988Z,4.22
2023-02-19T08:43:08.947Z,4.03
2023-02-19T08:45:37.340Z,4.20
2023-02-19T08:48:04.294Z,4.60
2023-02-19T08:50:30.958Z,2.95
2023-02-19T08:52:59.506Z,2.72
2023-02-19T08:55:26.158Z,2.27
2023-02-19T08:57:52.845Z,2.60
2023-02-19T09:00:19.490Z,2.50
2023-02-19T09:02:46.055Z,2.67
2023-02-19T09:05:12.617Z,2.20
2023-02-19T09:07:39.531Z,2.27
2023-02-19T09:10:06.915Z,2.80
2023-02-19T09:12:33.695Z,2.30
2023-02-19T09:15:00.877Z,2.55
2023-02-19T09:17:27.640Z,2.40
2023-02-19T09:19:54.259Z,2.70
2023-02-19T09:22:20.834Z,2.20
2023-02-19T09:24:47.442Z,2.35
2023-02-19T09:27:18.969Z,1.98
2023-02-19T09:29:46.630Z,2.08
2023-02-19T09:32:14.004Z,1.50
2023-02-19T09:34:40.835Z,1.90
2023-02-19T09:37:07.965Z,1.45
2023-02-19T09:39:35.022Z,1.80
2023-02-19T09:42:09.186Z,1.75
2023-02-19T09:44:39.281Z,1.73
2023-02-19T09:47:18.200Z,1.65
2023-02-19T09:49:52.091Z,1.45
2023-02-19T09:52:43.558Z,1.50
2023-02-19T09:55:16.543Z,1.50
2023-02-19T09:57:44.797Z,1.53
2023-02-19T10:00:11.419Z,1.67
2023-02-19T10:02:38.574Z,1.67
2023-02-19T10:05:12.779Z,2.03
2023-02-19T10:07:43.751Z,1.55
2023-02-19T10:10:13.207Z,1.50
2023-02-19T10:12:45.732Z,1.55
2023-02-19T10:15:37.504Z,1.30
2023-02-19T10:18:05.807Z,1.58
2023-02-19T10:20:32.365Z,1.20
2023-02-19T10:23:07.749Z,1.40
2023-02-19T10:25:35.025Z,1.35
2023-02-19T10:28:03.283Z,1.98
2023-02-19T10:30:33.361Z,1.45
2023-02-19T10:33:09.938Z,1.80
2023-02-19T10:35:50.598Z,1.67
2023-02-19T10:38:18.990Z,1.50
2023-02-19T10:40:46.627Z,1.30
2023-02-19T10:43:31.694Z,1.65
2023-02-19T10:45:59.597Z,1.30
2023-02-19T10:48:31.760Z,1.67
2023-02-19T10:51:10.801Z,1.70
2023-02-19T10:53:49.452Z,1.20
2023-02-19T10:56:24.342Z,1.20
2023-02-19T10:58:51.289Z,0.98
2023-02-19T11:01:23.359Z,0.97
2023-02-19T11:04:13.868Z,1.30
2023-02-19T11:06:40.460Z,1.20
2023-02-19T11:09:24.202Z,1.30
2023-02-19T11:11:52.246Z,1.50
2023-02-19T11:14:22.623Z,1.17
2023-02-19T11:16:58.662Z,1.42
2023-02-19T11:19:27.320Z,1.25
2023-02-19T11:21:54.625Z,0.93
2023-02-19T11:24:30.504Z,1.05
2023-02-19T11:26:58.440Z,1.00
2023-02-19T11:29:28.635Z,1.58
2023-02-19T11:31:56.495Z,1.10
2023-02-19T11:34:29.852Z,0.80
2023-02-19T11:37:24.256Z,0.93
2023-02-19T11:39:51.834Z,1.00
2023-02-19T11:42:32.202Z,1.42
2023-02-19T11:45:28.781Z,1.00
2023-02-19T11:48:30.312Z,1.60
2023-02-19T11:51:15.445Z,1.83
2023-02-19T11:54:24.792Z,1.20
2023-02-19T11:57:09.706Z,1.60
2023-02-19T11:59:54.001Z,1.63
2023-02-19T12:02:35.069Z,1.88
2023-02-19T12:05:31.447Z,2.20
2023-02-19T12:08:28.372Z,1.90
2023-02-19T12:11:04.072Z,2.80
2023-02-19T12:13:51.401Z,2.30
2023-02-19T12:16:27.311Z,2.40
2023-02-19T12:19:07.032Z,2.35
2023-02-19T12:22:18.069Z,2.53
2023-02-19T12:24:57.625Z,2.53
2023-02-19T12:27:42.533Z,2.42
2023-02-19T12:30:21.119Z,2.50
2023-02-19T12:32:53.441Z,1.80
2023-02-19T12:35:25.951Z,1.90
2023-02-19T12:38:14.298Z,1.48
2023-02-19T12:40:49.098Z,1.73
2023-02-19T12:43:21.372Z,2.00
2023-02-19T12:46:00.612Z,1.50
2023-02-19T12:48:46.872Z,1.87
2023-02-19T12:51:23.226Z,1.70
2023-02-19T12:53:59.932Z,1.95
2023-02-19T12:56:37.922Z,1.90
2023-02-19T12:59:36.466Z,1.70
2023-02-19T13:02:16.254Z,1.40
2023-02-19T13:04:49.465Z,1.80
2023-02-19T13:07:21.828Z,1.75
2023-02-19T13:10:08.989Z,2.38
2023-02-19T13:12:39.640Z,2.20
2023-02-19T13:15:34.701Z,2.23
2023-02-19T13:18:03.496Z,2.05
2023-02-19T13:20:32.054Z,1.85
2023-02-19T13:23:19.892Z,1.85
2023-02-19T13:26:00.477Z,1.80
2023-02-19T13:28:39.208Z,1.77
2023-02-19T13:31:30.141Z,1.67
2023-02-19T13:34:05.850Z,1.42
2023-02-19T13:36:36.028Z,1.25
2023-02-19T13:39:06.629Z,1.65
2023-02-19T13:41:42.384Z,1.63
2023-02-19T13:44:18.906Z,1.30
2023-02-19T13:46:47.698Z,1.40
2023-02-19T13:49:29.565Z,1.55
2023-02-19T13:52:18.830Z,1.65
2023-02-19T13:54:45.338Z,2.00
2023-02-19T13:57:17.874Z,1.85
2023-02-19T13:59:45.394Z,2.08
2023-02-19T14:02:21.144Z,1.90
2023-02-19T14:05:00.426Z,1.92
2023-02-19T14:07:26.969Z,1.60
2023-02-19T14:09:54.648Z,1.67
2023-02-19T14:12:22.843Z,1.27
2023-02-19T14:14:54.324Z,1.40
2023-02-19T14:17:36.151Z,1.33
2023-02-19T14:20:34.699Z,1.60
2023-02-19T14:23:14.364Z,1.00
2023-02-19T14:25:48.231Z,1.45
2023-02-19T14:28:45.580Z,1.27
2023-02-19T14:31:26.165Z,1.10
2023-02-19T14:33:56.277Z,0.80
2023-02-19T14:36:48.666Z,1.63
2023-02-19T14:39:29.037Z,2.00
2023-02-19T14:42:01.507Z,1.58
2023-02-19T14:44:37.199Z,1.50
2023-02-19T14:47:07.104Z,1.00
2023-02-19T14:49:46.148Z,0.73
2023-02-19T14:52:20.412Z,1.10
2023-02-19T14:55:05.928Z,0.70
2023-02-19T14:57:36.502Z,0.68
2023-02-19T15:00:21.468Z,0.90
2023-02-19T15:02:49.911Z,1.05
2023-02-19T15:05:18.131Z,0.80
2023-02-19T15:07:45.151Z,1.00
2023-02-19T15:10:14.286Z,0.95
2023-02-19T15:12:47.326Z,1.30
2023-02-19T15:15:26.986Z,1.13
2023-02-19T15:17:54.173Z,0.90
2023-02-19T15:20:24.347Z,1.05
2023-02-19T15:22:52.808Z,1.20
2023-02-19T15:25:22.463Z,1.10
2023-02-19T15:27:49.543Z,1.13
2023-02-19T15:30:28.529Z,1.02
2023-02-19T15:33:00.126Z,1.77
2023-02-19T15:35:28.703Z,1.52
2023-02-19T15:37:55.797Z,1.37
2023-02-19T15:40:29.175Z,1.67
2023-02-19T15:42:57.117Z,1.90
2023-02-19T15:45:29.030Z,1.80
2023-02-19T15:48:11.528Z,1.92
2023-02-19T15:50:44.065Z,2.03
2023-02-19T15:53:29.010Z,1.90
2023-02-19T15:56:08.067Z,2.13
2023-02-19T15:58:45.651Z,2.00
2023-02-19T16:01:25.778Z,2.50
2023-02-19T16:03:56.226Z,2.40
2023-02-19T16:06:24.417Z,4.40
2023-02-19T16:09:06.657Z,2.97
2023-02-19T16:12:00.737Z,6.65
2023-02-19T16:14:32.652Z,2.13
2023-02-19T16:17:01.586Z,1.00
2023-02-19T16:19:30.914Z,1.20
2023-02-19T16:21:58.705Z,1.30
2023-02-19T16:24:32.301Z,1.25
2023-02-19T16:26:59.447Z,1.20
2023-02-19T16:29:32.457Z,1.20
2023-02-19T16:32:05.706Z,0.80
2023-02-19T16:34:47.100Z,0.70
2023-02-19T16:37:41.196Z,0.40
2023-02-19T16:40:07.736Z,0.50
2023-02-19T16:42:35.829Z,0.60
2023-02-19T16:45:02.574Z,1.15
2023-02-19T16:47:34.181Z,0.75
2023-02-19T16:50:03.422Z,0.90
2023-02-19T16:52:30.769Z,0.85
2023-02-19T16:54:57.307Z,0.80
2023-02-19T16:57:23.977Z,1.63
2023-02-19T16:59:50.838Z,1.25
2023-02-19T17:02:23.570Z,1.20
2023-02-19T17:04:51.809Z,1.77
2023-02-19T17:07:18.662Z,1.10
2023-02-19T17:09:45.222Z,0.70
2023-02-19T17:12:13.516Z,0.70
2023-02-19T17:14:40.582Z,1.73
2023-02-19T17:17:07.515Z,2.00
2023-02-19T17:19:34.343Z,1.20
2023-02-19T17:22:01.268Z,1.30
2023-02-19T17:24:27.873Z,1.25
2023-02-19T17:26:54.422Z,1.50
2023-02-19T17:29:21.002Z,0.80
2023-02-19T17:31:47.874Z,1.10
2023-02-19T17:34:14.701Z,1.52
2023-02-19T17:36:43.295Z,1.10
2023-02-19T17:39:15.167Z,0.80
2023-02-19T17:41:42.231Z,0.80
2023-02-19T17:44:09.448Z,0.63
2023-02-19T17:46:36.170Z,0.50
2023-02-19T17:49:02.765Z,0.90
2023-02-19T17:51:29.306Z,0.98
2023-02-19T17:53:55.844Z,0.75
2023-02-19T17:56:25.759Z,0.70
2023-02-19T17:58:53.061Z,0.50
2023-02-19T18:01:19.706Z,0.40
2023-02-19T18:03:46.496Z,0.30
2023-02-19T18:06:13.089Z,0.20
2023-02-19T18:08:39.849Z,0.73
2023-02-19T18:11:07.022Z,0.70
2023-02-19T18:13:33.608Z,0.70
2023-02-19T18:16:00.215Z,0.45
2023-02-19T18:18:27.136Z,0.60
2023-02-19T18:20:53.732Z,0.40
2023-02-19T18:23:20.658Z,0.80
2023-02-19T18:25:47.358Z,1.00
2023-02-19T18:28:14.900Z,1.17
2023-02-19T18:30:41.515Z,1.60
2023-02-19T18:33:10.843Z,1.53
2023-02-19T18:35:38.015Z,1.50
2023-02-19T18:38:05.791Z,1.25
2023-02-19T18:40:32.427Z,1.38
2023-02-19T18:42:59.107Z,0.80
2023-02-19T18:45:25.813Z,1.00
2023-02-19T18:47:52.389Z,0.95
2023-02-19T18:50:19.298Z,0.90
2023-02-19T18:52:45.978Z,1.20
2023-02-19T18:55:12.524Z,1.02
2023-02-19T18:57:38.980Z,1.27
2023-02-19T19:00:07.206Z,1.13
2023-02-19T19:02:47.154Z,1.08
2023-02-19T19:05:18.063Z,1.23
2023-02-19T19:07:44.532Z,0.70
2023-02-19T19:10:11.042Z,1.00
2023-02-19T19:12:37.551Z,0.82
2023-02-19T19:15:04.509Z,0.77
2023-02-19T19:17:31.056Z,0.60
2023-02-19T19:19:57.597Z,0.50
2023-02-19T19:22:25.081Z,0.70
2023-02-19T19:24:51.589Z,1.00
2023-02-19T19:27:19.877Z,1.20
2023-02-19T19:29:47.943Z,1.35
2023-02-19T19:32:14.688Z,1.60
2023-02-19T19:34:42.849Z,2.00
2023-02-19T19:37:09.914Z,2.30
2023-02-19T19:39:36.965Z,2.58
2023-02-19T19:42:03.572Z,2.30
2023-02-19T19:44:30.072Z,2.78
2023-02-19T19:46:56.613Z,3.00
2023-02-19T19:49:23.347Z,3.30
2023-02-19T19:51:50.292Z,2.90
2023-02-19T19:54:16.796Z,2.80
2023-02-19T19:56:46.224Z,3.45
2023-02-19T19:59:16.960Z,4.17
2023-02-19T20:01:55.595Z,4.50
2023-02-19T20:04:23.274Z,3.80
2023-02-19T20:06:50.074Z,4.05
2023-02-19T20:09:17.884Z,4.20
2023-02-19T20:11:49.744Z,4.13
2023-02-19T20:14:17.825Z,3.75
2023-02-19T20:16:44.892Z,3.60
2023-02-19T20:19:11.685Z,3.80
2023-02-19T20:21:38.237Z,3.95
2023-02-19T20:24:05.097Z,3.70
2023-02-19T20:26:31.896Z,3.55
2023-02-19T20:28:58.570Z,3.20
2023-02-19T20:31:25.477Z,3.30
2023-02-19T20:33:52.145Z,3.80
2023-02-19T20:36:20.085Z,4.17
2023-02-19T20:38:47.393Z,3.35
2023-02-19T20:41:14.127Z,3.38
2023-02-19T20:43:40.738Z,3.08
2023-02-19T20:46:07.651Z,2.95
2023-02-19T20:48:34.216Z,3.10
2023-02-19T20:51:00.728Z,3.17
2023-02-19T20:53:28.195Z,3.50
2023-02-19T20:55:56.096Z,4.05
2023-02-19T20:58:23.244Z,3.97
2023-02-19T21:00:50.116Z,3.33
2023-02-19T21:03:16.798Z,3.67
2023-02-19T21:05:43.412Z,3.70
2023-02-19T21:08:11.722Z,3.30
2023-02-19T21:10:38.837Z,3.28
2023-02-19T21:13:05.356Z,3.57
2023-02-19T21:15:31.973Z,2.92
2023-02-19T21:17:58.472Z,3.67
2023-02-19T21:20:24.982Z,3.00
2023-02-19T21:22:51.534Z,2.70
2023-02-19T21:25:17.976Z,3.50
2023-02-19T21:27:44.444Z,3.22
2023-02-19T21:30:11.158Z,3.00
2023-02-19T21:32:37.694Z,2.90
2023-02-19T21:35:04.503Z,2.50
2023-02-19T21:37:30.982Z,2.70
2023-02-19T21:39:58.768Z,3.03
2023-02-19T21:42:25.267Z,3.83
2023-02-19T21:44:51.724Z,3.65
2023-02-19T21:47:18.263Z,3.75
2023-02-19T21:49:44.765Z,3.83
2023-02-19T21:52:11.419Z,3.70
2023-02-19T21:54:37.966Z,4.60
2023-02-19T21:57:04.556Z,3.80
2023-02-19T21:59:31.068Z,4.47
2023-02-19T22:01:57.683Z,4.27
2023-02-19T22:04:24.604Z,4.40
2023-02-19T22:06:54.994Z,4.53
2023-02-19T22:09:21.491Z,5.28
2023-02-19T22:11:47.957Z,4.57
2023-02-19T22:14:14.670Z,4.80
2023-02-19T22:16:41.246Z,5.35
2023-02-19T22:19:07.762Z,4.93
2023-02-19T22:21:34.261Z,5.10
2023-02-19T22:24:02.700Z,4.78
2023-02-19T22:26:34.712Z,4.93
2023-02-19T22:29:07.072Z,4.97
2023-02-19T22:31:34.937Z,5.60
2023-02-19T22:34:01.837Z,5.47
2023-02-19T22:36:33.222Z,6.57
2023-02-19T22:39:00.605Z,6.23
2023-02-19T22:41:27.139Z,6.00
2023-02-19T22:43:58.420Z,6.63
2023-02-19T22:46:28.068Z,5.47
2023-02-19T22:48:54.854Z,5.85
2023-02-19T22:51:22.629Z,6.17
2023-02-19T22:53:51.671Z,6.13
2023-02-19T22:56:20.118Z,5.20
2023-02-19T22:58:46.638Z,5.95
2023-02-19T23:01:14.409Z,5.50
2023-02-19T23:03:52.895Z,5.20
2023-02-19T23:06:31.740Z,5.47
2023-02-19T23:09:03.275Z,5.53
2023-02-19T23:11:33.029Z,5.30
2023-02-19T23:13:59.613Z,5.72
2023-02-19T23:16:26.703Z,5.67
2023-02-19T23:18:53.343Z,6.88
2023-02-19T23:21:21.117Z,5.80
2023-02-19T23:23:47.663Z,5.32
2023-02-19T23:26:15.948Z,5.50
2023-02-19T23:28:43.407Z,5.70
2023-02-19T23:31:11.273Z,6.18
2023-02-19T23:33:37.934Z,6.30
2023-02-19T23:36:05.312Z,6.25
2023-02-19T23:38:31.839Z,6.13
2023-02-19T23:40:58.841Z,6.17
2023-02-19T23:43:25.392Z,6.25
2023-02-19T23:45:52.005Z,6.30
2023-02-19T23:48:18.568Z,5.97
2023-02-19T23:50:45.303Z,6.60
2023-02-19T23:53:11.884Z,5.37
2023-02-19T23:55:38.377Z,5.53
2023-02-19T23:58:04.913Z,5.60
